createdAt,value
2019-04-05T13:08:44.914Z,31.58
2019-04-05T13:11:25.887Z,31.57
2019-04-05T13:14:01.086Z,32.01
2019-04-05T13:16:38.902Z,31.90
2019-04-05T13:19:16.431Z,31.62
2019-04-05T13:21:53.893Z,31.52
2019-04-05T13:24:31.171Z,31.68
2019-04-05T13:27:11.524Z,31.95
2019-04-05T13:29:49.686Z,31.74
2019-04-05T13:32:27.075Z,31.44
2019-04-05T13:35:04.379Z,31.68
2019-04-05T13:37:42.508Z,31.72
2019-04-05T13:40:20.132Z,31.71
2019-04-05T13:43:01.427Z,31.37
2019-04-05T13:45:37.060Z,31.38
2019-04-05T13:48:14.844Z,31.37
2019-04-05T13:50:53.032Z,31.51
2019-04-05T13:53:30.736Z,31.48
2019-04-05T13:56:08.618Z,31.51
2019-04-05T13:58:48.136Z,31.65
2019-04-05T14:01:26.520Z,31.67
2019-04-05T14:04:04.491Z,31.57
2019-04-05T14:06:42.822Z,31.84
2019-04-05T14:09:20.681Z,32.01
2019-04-05T14:11:58.406Z,32.04
2019-04-05T14:14:36.189Z,31.85
2019-04-05T14:17:14.328Z,32.14
2019-04-05T14:19:51.899Z,32.29
2019-04-05T14:22:30.266Z,32.33
2019-04-05T14:25:09.017Z,31.93
2019-04-05T14:27:46.886Z,31.95
2019-04-05T14:30:25.003Z,31.90
2019-04-05T14:33:03.932Z,32.22
2019-04-05T14:35:41.475Z,32.35
2019-04-05T14:38:19.816Z,32.49
2019-04-05T14:40:57.950Z,32.53
2019-04-05T14:43:37.835Z,32.28
2019-04-05T14:46:14.993Z,32.36
2019-04-05T14:48:52.436Z,32.55
2019-04-05T14:51:30.527Z,32.47
2019-04-05T14:54:09.942Z,32.51
2019-04-05T14:56:47.468Z,32.48
2019-04-05T14:59:25.028Z,32.30
2019-04-05T15:02:03.044Z,31.47
2019-04-05T15:04:41.929Z,31.67
2019-04-05T15:07:21.018Z,31.37
2019-04-05T15:09:59.165Z,31.51
2019-04-05T15:12:37.687Z,31.72
2019-04-05T15:15:15.519Z,31.33
2019-04-05T15:17:52.975Z,31.31
2019-04-05T15:20:30.458Z,31.47
2019-04-05T15:23:09.644Z,31.57
2019-04-05T15:25:49.835Z,31.69
2019-04-05T15:28:27.770Z,31.28
2019-04-05T15:31:04.926Z,30.90
2019-04-05T15:33:43.454Z,31.24
2019-04-05T15:36:21.886Z,31.66
2019-04-05T15:39:01.531Z,31.73
2019-04-05T15:41:39.737Z,31.29
2019-04-05T15:44:17.154Z,31.08
2019-04-05T15:46:54.944Z,31.33
2019-04-05T15:49:32.790Z,31.73
2019-04-05T15:52:18.507Z,31.20
2019-04-05T15:54:50.009Z,31.04
2019-04-05T15:57:27.501Z,30.92
2019-04-05T16:00:05.853Z,31.22
2019-04-05T16:02:43.288Z,31.18
2019-04-05T16:05:21.636Z,31.10
2019-04-05T16:08:01.201Z,31.20
2019-04-05T16:10:38.933Z,31.34
2019-04-05T16:13:16.368Z,31.35
2019-04-05T16:15:54.281Z,31.44
2019-04-05T16:18:32.810Z,31.62
2019-04-05T16:21:10.616Z,31.16
2019-04-05T16:23:47.866Z,31.11
2019-04-05T16:26:25.780Z,31.24
2019-04-05T16:29:03.813Z,31.39
2019-04-05T16:31:40.930Z,31.61
2019-04-05T16:34:18.515Z,31.28
2019-04-05T16:36:56.766Z,30.94
2019-04-05T16:39:35.366Z,31.37
2019-04-05T16:42:12.576Z,31.51
2019-04-05T16:44:49.152Z,31.31
2019-04-05T16:47:26.633Z,30.88
2019-04-05T16:50:04.705Z,31.04
2019-04-05T16:52:45.236Z,31.58
2019-04-05T16:55:21.673Z,31.43
2019-04-05T16:57:59.591Z,31.61
2019-04-05T17:00:37.719Z,31.56
2019-04-05T17:03:15.122Z,31.44
2019-04-05T17:05:52.639Z,31.57
2019-04-05T17:08:31.352Z,31.60
2019-04-05T17:11:11.613Z,31.43
2019-04-05T17:13:49.416Z,31.33
2019-04-05T17:16:26.788Z,31.31
2019-04-05T17:19:04.550Z,31.27
2019-04-05T17:21:42.868Z,31.40
2019-04-05T17:24:20.735Z,31.46
2019-04-05T17:26:59.121Z,31.24
2019-04-05T17:29:36.664Z,31.44
2019-04-05T17:32:14.696Z,31.61
2019-04-05T17:34:53.063Z,32.01
2019-04-05T17:37:30.488Z,31.91
2019-04-05T17:40:09.195Z,31.78
2019-04-05T17:42:47.932Z,31.88
2019-04-05T17:45:26.246Z,32.18
2019-04-05T17:48:03.886Z,32.44
2019-04-05T17:50:42.091Z,32.08
2019-04-05T17:53:23.052Z,31.77
2019-04-05T17:56:01.105Z,31.81
2019-04-05T17:58:38.686Z,31.67
2019-04-05T18:01:16.162Z,31.35
2019-04-05T18:03:54.235Z,31.51
2019-04-05T18:06:32.480Z,31.73
2019-04-05T18:09:10.210Z,31.47
2019-04-05T18:11:48.014Z,31.26
2019-04-05T18:14:26.926Z,31.07
2019-04-05T18:17:04.855Z,30.95
2019-04-05T18:19:42.204Z,31.17
2019-04-05T18:22:19.646Z,31.87
2019-04-05T18:24:57.030Z,31.71
2019-04-05T18:27:34.455Z,31.80
2019-04-05T18:30:11.952Z,31.88
2019-04-05T18:32:49.581Z,31.96
2019-04-05T18:35:27.588Z,31.84
2019-04-05T18:38:05.450Z,31.82
2019-04-05T18:40:42.576Z,31.97
2019-04-05T18:43:21.512Z,32.19
2019-04-05T18:46:00.526Z,31.87
2019-04-05T18:48:38.496Z,31.92
2019-04-05T18:51:15.705Z,32.16
2019-04-05T18:53:54.210Z,32.40
2019-04-05T18:56:32.861Z,32.17
2019-04-05T18:59:10.288Z,31.65
2019-04-05T19:01:47.792Z,31.57
2019-04-05T19:04:26.390Z,31.13
2019-04-05T19:07:04.121Z,31.60
2019-04-05T19:09:41.699Z,31.67
2019-04-05T19:12:18.816Z,31.25
2019-04-05T19:14:57.873Z,31.16
2019-04-05T19:17:37.757Z,31.32
2019-04-05T19:20:15.464Z,31.29
2019-04-05T19:22:53.151Z,31.29
2019-04-05T19:25:30.706Z,31.30
2019-04-05T19:28:08.352Z,31.75
2019-04-05T19:49:20.541Z,31.02
2019-04-05T19:51:57.905Z,30.87
2019-04-05T19:54:35.587Z,31.07
2019-04-05T19:57:13.568Z,30.81
2019-04-05T19:59:51.431Z,30.70
2019-04-05T20:02:28.938Z,30.65
2019-04-05T20:05:06.293Z,30.67
2019-04-05T20:07:44.186Z,30.59
2019-04-05T20:10:21.578Z,30.52
2019-04-05T20:12:59.693Z,30.48
2019-04-05T20:15:40.399Z,30.31
2019-04-05T20:18:18.016Z,30.37
2019-04-05T20:20:56.512Z,29.88
2019-04-05T20:23:33.450Z,29.69
2019-04-05T20:26:10.727Z,29.57
2019-04-05T20:28:48.509Z,29.50
2019-04-05T20:31:26.112Z,29.49
2019-04-05T20:34:03.818Z,29.31
2019-04-05T20:36:41.472Z,29.22
2019-04-05T20:39:19.483Z,29.06
2019-04-05T20:41:57.437Z,29.10
2019-04-05T20:44:35.674Z,29.19
2019-04-05T20:47:12.926Z,29.07
2019-04-05T20:49:50.503Z,28.98
2019-04-05T20:52:28.939Z,28.93
2019-04-05T20:55:07.108Z,29.02
2019-04-05T20:57:44.757Z,29.02
2019-04-05T21:00:22.689Z,28.81
2019-04-05T21:03:00.488Z,28.80
2019-04-05T21:05:38.172Z,28.86
2019-04-05T21:08:15.780Z,28.82
2019-04-05T21:10:53.396Z,28.68
2019-04-05T21:13:31.372Z,28.68
2019-04-05T21:16:09.164Z,28.74
2019-04-05T21:18:46.587Z,28.79
2019-04-05T21:21:24.457Z,28.73
2019-04-05T21:24:02.996Z,28.78
2019-04-05T21:26:41.077Z,28.78
2019-04-05T21:29:17.972Z,28.81
2019-04-05T21:31:56.047Z,28.69
2019-04-05T21:34:34.800Z,28.57
2019-04-05T21:37:12.355Z,28.56
2019-04-05T21:39:49.917Z,28.60
2019-04-05T21:42:28.466Z,28.58
2019-04-05T21:45:06.891Z,28.46
2019-04-05T21:47:44.916Z,28.52
2019-04-05T21:50:22.126Z,28.62
2019-04-05T21:52:59.722Z,28.68
2019-04-05T21:55:38.989Z,28.62
2019-04-05T21:58:16.914Z,28.58
2019-04-05T22:00:59.058Z,28.59
2019-04-05T22:03:37.274Z,28.54
2019-04-05T22:06:15.443Z,28.56
2019-04-05T22:08:53.159Z,28.61
2019-04-05T22:11:30.339Z,28.65
2019-04-05T22:14:07.963Z,28.72
2019-04-05T22:16:46.424Z,28.66
2019-04-05T22:19:24.685Z,28.59
2019-04-05T22:22:01.825Z,28.61
2019-04-05T22:24:40.213Z,28.78
2019-04-05T22:27:18.789Z,28.69
2019-04-05T22:29:56.333Z,28.65
2019-04-05T22:32:33.586Z,28.57
2019-04-05T22:35:13.617Z,28.63
2019-04-05T22:37:51.522Z,28.69
2019-04-05T22:40:29.487Z,28.55
2019-04-05T22:43:06.782Z,28.54
2019-04-05T22:45:45.262Z,28.57
2019-04-05T22:48:23.790Z,28.63
2019-04-05T22:51:01.466Z,28.62
2019-04-05T22:53:38.699Z,28.69
2019-04-05T22:56:17.343Z,28.68
2019-04-05T22:58:56.222Z,28.65
2019-04-05T23:01:34.082Z,28.70
2019-04-05T23:04:11.575Z,28.74
2019-04-05T23:06:48.980Z,28.86
2019-04-05T23:09:26.621Z,28.80
2019-04-05T23:12:03.956Z,28.76
2019-04-05T23:14:42.498Z,28.81
2019-04-05T23:17:20.221Z,28.93
2019-04-05T23:19:58.797Z,28.80
2019-04-05T23:22:36.994Z,28.75
2019-04-05T23:25:21.993Z,28.68
2019-04-05T23:27:54.378Z,28.83
2019-04-05T23:30:34.566Z,28.80
2019-04-05T23:33:12.516Z,28.77
2019-04-05T23:35:50.082Z,28.91
2019-04-05T23:38:27.696Z,28.95
2019-04-05T23:41:05.700Z,28.97
2019-04-05T23:43:43.268Z,29.00
2019-04-05T23:46:20.501Z,29.04
2019-04-05T23:48:58.412Z,29.22
2019-04-05T23:51:36.355Z,29.17
2019-04-05T23:54:13.678Z,29.22
2019-04-05T23:56:51.423Z,29.33
2019-04-05T23:59:29.722Z,29.37
